sensor_id;sensor_type;location;lat;lon;timestamp;P1;durP1;ratioP1;P2;durP2;ratioP2
52730;SDS011;38624;53.242;6.974;2023-06-26T00:02:16;11.03;;;9.00;;
52730;SDS011;38624;53.242;6.974;2023-06-26T00:04:45;10.73;;;9.00;;
52730;SDS011;38624;53.242;6.974;2023-06-26T00:07:10;11.88;;;9.07;;
52730;SDS011;38624;53.242;6.974;2023-06-26T00:09:36;10.83;;;9.67;;
52730;SDS011;38624;53.242;6.974;2023-06-26T00:12:02;11.85;;;9.43;;
52730;SDS011;38624;53.242;6.974;2023-06-26T00:14:28;14.20;;;9.52;;
52730;SDS011;38624;53.242;6.974;2023-06-26T00:16:54;16.92;;;9.07;;
52730;SDS011;38624;53.242;6.974;2023-06-26T00:19:20;10.80;;;9.33;;
52730;SDS011;38624;53.242;6.974;2023-06-26T00:21:47;11.07;;;9.52;;
52730;SDS011;38624;53.242;6.974;2023-06-26T00:24:16;12.43;;;10.05;;
52730;SDS011;38624;53.242;6.974;2023-06-26T00:26:42;13.18;;;9.32;;
52730;SDS011;38624;53.242;6.974;2023-06-26T00:29:08;10.88;;;8.95;;
52730;SDS011;38624;53.242;6.974;2023-06-26T00:31:34;10.37;;;9.33;;
52730;SDS011;38624;53.242;6.974;2023-06-26T00:34:03;13.00;;;10.10;;
52730;SDS011;38624;53.242;6.974;2023-06-26T00:36:29;12.52;;;9.55;;
52730;SDS011;38624;53.242;6.974;2023-06-26T00:38:54;11.48;;;9.32;;
52730;SDS011;38624;53.242;6.974;2023-06-26T00:41:20;12.53;;;9.23;;
52730;SDS011;38624;53.242;6.974;2023-06-26T00:43:46;13.20;;;10.20;;
52730;SDS011;38624;53.242;6.974;2023-06-26T00:46:12;11.53;;;9.83;;
52730;SDS011;38624;53.242;6.974;2023-06-26T00:48:39;10.63;;;9.50;;
52730;SDS011;38624;53.242;6.974;2023-06-26T00:51:10;12.75;;;10.40;;
52730;SDS011;38624;53.242;6.974;2023-06-26T00:53:36;12.13;;;9.82;;
52730;SDS011;38624;53.242;6.974;2023-06-26T00:56:02;10.02;;;8.88;;
52730;SDS011;38624;53.242;6.974;2023-06-26T00:58:29;12.32;;;9.68;;
52730;SDS011;38624;53.242;6.974;2023-06-26T01:00:55;12.63;;;10.20;;
52730;SDS011;38624;53.242;6.974;2023-06-26T01:03:24;10.75;;;9.63;;
52730;SDS011;38624;53.242;6.974;2023-06-26T01:05:54;11.63;;;9.88;;
52730;SDS011;38624;53.242;6.974;2023-06-26T01:08:21;10.75;;;9.63;;
52730;SDS011;38624;53.242;6.974;2023-06-26T01:10:48;12.23;;;10.50;;
52730;SDS011;38624;53.242;6.974;2023-06-26T01:13:14;13.33;;;10.77;;
52730;SDS011;38624;53.242;6.974;2023-06-26T01:15:41;12.70;;;10.05;;
52730;SDS011;38624;53.242;6.974;2023-06-26T01:18:06;13.67;;;11.37;;
52730;SDS011;38624;53.242;6.974;2023-06-26T01:20:37;13.70;;;11.30;;
52730;SDS011;38624;53.242;6.974;2023-06-26T01:28:32;12.27;;;10.70;;
52730;SDS011;38624;53.242;6.974;2023-06-26T01:31:00;12.65;;;10.77;;
52730;SDS011;38624;53.242;6.974;2023-06-26T01:33:27;15.35;;;10.52;;
52730;SDS011;38624;53.242;6.974;2023-06-26T01:35:54;12.60;;;10.98;;
52730;SDS011;38624;53.242;6.974;2023-06-26T01:38:20;12.07;;;10.52;;
52730;SDS011;38624;53.242;6.974;2023-06-26T01:40:48;15.07;;;11.38;;
52730;SDS011;38624;53.242;6.974;2023-06-26T01:43:24;12.60;;;10.98;;
52730;SDS011;38624;53.242;6.974;2023-06-26T01:45:51;15.90;;;11.70;;
52730;SDS011;38624;53.242;6.974;2023-06-26T01:48:24;11.98;;;10.73;;
52730;SDS011;38624;53.242;6.974;2023-06-26T01:50:58;13.68;;;10.68;;
52730;SDS011;38624;53.242;6.974;2023-06-26T01:53:25;17.55;;;11.18;;
52730;SDS011;38624;53.242;6.974;2023-06-26T01:55:59;13.00;;;10.63;;
52730;SDS011;38624;53.242;6.974;2023-06-26T01:58:30;12.98;;;10.15;;
52730;SDS011;38624;53.242;6.974;2023-06-26T02:00:57;12.32;;;11.05;;
52730;SDS011;38624;53.242;6.974;2023-06-26T02:03:22;13.70;;;10.77;;
52730;SDS011;38624;53.242;6.974;2023-06-26T02:05:49;12.57;;;11.23;;
52730;SDS011;38624;53.242;6.974;2023-06-26T02:08:16;12.30;;;10.32;;
52730;SDS011;38624;53.242;6.974;2023-06-26T02:10:41;12.10;;;10.90;;
52730;SDS011;38624;53.242;6.974;2023-06-26T02:13:07;13.27;;;11.30;;
52730;SDS011;38624;53.242;6.974;2023-06-26T02:15:33;13.93;;;11.37;;
52730;SDS011;38624;53.242;6.974;2023-06-26T02:17:58;14.77;;;11.07;;
52730;SDS011;38624;53.242;6.974;2023-06-26T02:20:24;13.23;;;10.60;;
52730;SDS011;38624;53.242;6.974;2023-06-26T02:22:50;13.30;;;11.00;;
52730;SDS011;38624;53.242;6.974;2023-06-26T02:25:15;13.53;;;11.60;;
52730;SDS011;38624;53.242;6.974;2023-06-26T02:27:42;13.48;;;11.25;;
52730;SDS011;38624;53.242;6.974;2023-06-26T02:30:08;12.87;;;11.57;;
52730;SDS011;38624;53.242;6.974;2023-06-26T02:32:34;15.48;;;10.63;;
52730;SDS011;38624;53.242;6.974;2023-06-26T02:35:00;14.30;;;11.90;;
52730;SDS011;38624;53.242;6.974;2023-06-26T02:37:26;13.80;;;11.20;;
52730;SDS011;38624;53.242;6.974;2023-06-26T02:39:52;14.60;;;10.90;;
52730;SDS011;38624;53.242;6.974;2023-06-26T02:42:17;12.87;;;11.20;;
52730;SDS011;38624;53.242;6.974;2023-06-26T02:44:43;14.77;;;11.27;;
52730;SDS011;38624;53.242;6.974;2023-06-26T02:47:09;13.57;;;11.20;;
52730;SDS011;38624;53.242;6.974;2023-06-26T02:49:34;14.97;;;11.70;;
52730;SDS011;38624;53.242;6.974;2023-06-26T02:52:00;13.50;;;11.27;;
52730;SDS011;38624;53.242;6.974;2023-06-26T02:54:25;14.73;;;12.70;;
52730;SDS011;38624;53.242;6.974;2023-06-26T02:56:51;17.03;;;11.90;;
52730;SDS011;38624;53.242;6.974;2023-06-26T02:59:17;13.50;;;11.53;;
52730;SDS011;38624;53.242;6.974;2023-06-26T03:01:43;14.30;;;11.80;;
52730;SDS011;38624;53.242;6.974;2023-06-26T03:04:08;14.40;;;11.50;;
52730;SDS011;38624;53.242;6.974;2023-06-26T03:06:35;14.52;;;11.65;;
52730;SDS011;38624;53.242;6.974;2023-06-26T03:09:01;15.25;;;11.68;;
52730;SDS011;38624;53.242;6.974;2023-06-26T03:11:27;14.25;;;11.48;;
52730;SDS011;38624;53.242;6.974;2023-06-26T03:13:53;13.52;;;11.43;;
52730;SDS011;38624;53.242;6.974;2023-06-26T03:16:19;19.10;;;11.87;;
52730;SDS011;38624;53.242;6.974;2023-06-26T03:18:45;15.57;;;12.77;;
52730;SDS011;38624;53.242;6.974;2023-06-26T03:21:10;13.50;;;12.10;;
52730;SDS011;38624;53.242;6.974;2023-06-26T03:23:36;15.10;;;12.70;;
52730;SDS011;38624;53.242;6.974;2023-06-26T03:26:02;13.93;;;12.53;;
52730;SDS011;38624;53.242;6.974;2023-06-26T03:28:27;14.47;;;11.97;;
52730;SDS011;38624;53.242;6.974;2023-06-26T03:30:53;13.40;;;12.07;;
52730;SDS011;38624;53.242;6.974;2023-06-26T03:33:19;14.47;;;12.67;;
52730;SDS011;38624;53.242;6.974;2023-06-26T03:35:44;14.10;;;11.60;;
52730;SDS011;38624;53.242;6.974;2023-06-26T03:38:10;13.67;;;11.90;;
52730;SDS011;38624;53.242;6.974;2023-06-26T03:40:36;14.40;;;12.80;;
52730;SDS011;38624;53.242;6.974;2023-06-26T03:43:01;16.43;;;12.07;;
52730;SDS011;38624;53.242;6.974;2023-06-26T03:45:27;15.57;;;12.73;;
52730;SDS011;38624;53.242;6.974;2023-06-26T03:47:53;14.80;;;13.30;;
52730;SDS011;38624;53.242;6.974;2023-06-26T03:50:19;15.87;;;11.80;;
52730;SDS011;38624;53.242;6.974;2023-06-26T03:52:44;14.10;;;12.40;;
52730;SDS011;38624;53.242;6.974;2023-06-26T03:55:10;13.53;;;12.13;;
52730;SDS011;38624;53.242;6.974;2023-06-26T03:57:36;15.02;;;13.40;;
52730;SDS011;38624;53.242;6.974;2023-06-26T04:00:02;14.80;;;13.30;;
52730;SDS011;38624;53.242;6.974;2023-06-26T04:02:33;16.58;;;13.48;;
52730;SDS011;38624;53.242;6.974;2023-06-26T04:07:26;15.07;;;13.48;;
52730;SDS011;38624;53.242;6.974;2023-06-26T04:09:51;15.73;;;13.43;;
52730;SDS011;38624;53.242;6.974;2023-06-26T04:12:17;14.73;;;12.87;;
52730;SDS011;38624;53.242;6.974;2023-06-26T04:14:43;13.45;;;11.90;;
52730;SDS011;38624;53.242;6.974;2023-06-26T04:17:09;15.77;;;13.27;;
52730;SDS011;38624;53.242;6.974;2023-06-26T04:19:35;12.70;;;11.02;;
52730;SDS011;38624;53.242;6.974;2023-06-26T04:22:01;15.85;;;12.88;;
52730;SDS011;38624;53.242;6.974;2023-06-26T04:24:27;14.07;;;12.02;;
52730;SDS011;38624;53.242;6.974;2023-06-26T04:26:53;15.60;;;12.57;;
52730;SDS011;38624;53.242;6.974;2023-06-26T04:29:22;15.20;;;12.40;;
52730;SDS011;38624;53.242;6.974;2023-06-26T04:31:50;13.63;;;12.23;;
52730;SDS011;38624;53.242;6.974;2023-06-26T04:34:17;14.40;;;12.30;;
52730;SDS011;38624;53.242;6.974;2023-06-26T04:36:42;15.13;;;11.82;;
52730;SDS011;38624;53.242;6.974;2023-06-26T04:39:13;15.48;;;12.77;;
52730;SDS011;38624;53.242;6.974;2023-06-26T04:41:40;13.75;;;11.27;;
52730;SDS011;38624;53.242;6.974;2023-06-26T04:44:06;13.80;;;11.07;;
52730;SDS011;38624;53.242;6.974;2023-06-26T04:46:31;12.83;;;11.53;;
52730;SDS011;38624;53.242;6.974;2023-06-26T04:48:57;15.70;;;11.80;;
52730;SDS011;38624;53.242;6.974;2023-06-26T04:51:23;12.20;;;10.85;;
52730;SDS011;38624;53.242;6.974;2023-06-26T04:53:52;13.20;;;11.40;;
52730;SDS011;38624;53.242;6.974;2023-06-26T04:56:18;13.00;;;11.60;;
52730;SDS011;38624;53.242;6.974;2023-06-26T04:58:43;14.97;;;12.07;;
52730;SDS011;38624;53.242;6.974;2023-06-26T05:01:09;15.67;;;11.80;;
52730;SDS011;38624;53.242;6.974;2023-06-26T05:03:35;13.82;;;11.20;;
52730;SDS011;38624;53.242;6.974;2023-06-26T05:08:27;17.90;;;11.77;;
52730;SDS011;38624;53.242;6.974;2023-06-26T05:10:53;14.60;;;11.17;;
52730;SDS011;38624;53.242;6.974;2023-06-26T05:13:22;13.68;;;11.35;;
52730;SDS011;38624;53.242;6.974;2023-06-26T05:15:49;11.95;;;10.45;;
52730;SDS011;38624;53.242;6.974;2023-06-26T05:18:15;14.27;;;9.75;;
52730;SDS011;38624;53.242;6.974;2023-06-26T05:20:41;13.85;;;10.38;;
52730;SDS011;38624;53.242;6.974;2023-06-26T05:23:07;14.40;;;10.07;;
52730;SDS011;38624;53.242;6.974;2023-06-26T05:25:32;14.32;;;10.18;;
52730;SDS011;38624;53.242;6.974;2023-06-26T05:27:59;14.77;;;9.68;;
52730;SDS011;38624;53.242;6.974;2023-06-26T05:30:25;12.00;;;10.00;;
52730;SDS011;38624;53.242;6.974;2023-06-26T05:35:19;13.98;;;9.30;;
52730;SDS011;38624;53.242;6.974;2023-06-26T05:37:48;13.30;;;9.73;;
52730;SDS011;38624;53.242;6.974;2023-06-26T05:40:15;16.08;;;9.18;;
52730;SDS011;38624;53.242;6.974;2023-06-26T05:42:42;17.50;;;10.32;;
52730;SDS011;38624;53.242;6.974;2023-06-26T05:45:09;16.08;;;9.65;;
52730;SDS011;38624;53.242;6.974;2023-06-26T05:47:35;12.18;;;9.50;;
52730;SDS011;38624;53.242;6.974;2023-06-26T05:50:01;14.82;;;10.13;;
52730;SDS011;38624;53.242;6.974;2023-06-26T05:52:27;15.40;;;10.57;;
52730;SDS011;38624;53.242;6.974;2023-06-26T05:54:53;18.92;;;10.20;;
52730;SDS011;38624;53.242;6.974;2023-06-26T05:57:20;18.27;;;10.57;;
52730;SDS011;38624;53.242;6.974;2023-06-26T05:59:46;18.25;;;12.52;;
52730;SDS011;38624;53.242;6.974;2023-06-26T06:02:12;19.48;;;12.13;;
52730;SDS011;38624;53.242;6.974;2023-06-26T06:04:38;22.47;;;12.00;;
52730;SDS011;38624;53.242;6.974;2023-06-26T06:07:04;20.27;;;12.03;;
52730;SDS011;38624;53.242;6.974;2023-06-26T06:09:30;19.27;;;11.70;;
52730;SDS011;38624;53.242;6.974;2023-06-26T06:11:55;19.73;;;10.70;;
52730;SDS011;38624;53.242;6.974;2023-06-26T06:14:21;19.60;;;10.77;;
52730;SDS011;38624;53.242;6.974;2023-06-26T06:16:47;19.00;;;10.63;;
52730;SDS011;38624;53.242;6.974;2023-06-26T06:19:12;17.80;;;9.37;;
52730;SDS011;38624;53.242;6.974;2023-06-26T06:21:39;17.55;;;9.35;;
52730;SDS011;38624;53.242;6.974;2023-06-26T06:24:04;18.70;;;8.10;;
52730;SDS011;38624;53.242;6.974;2023-06-26T06:26:32;14.77;;;5.97;;
52730;SDS011;38624;53.242;6.974;2023-06-26T06:28:58;13.63;;;5.82;;
52730;SDS011;38624;53.242;6.974;2023-06-26T06:31:24;14.57;;;5.43;;
52730;SDS011;38624;53.242;6.974;2023-06-26T06:33:49;15.30;;;5.37;;
52730;SDS011;38624;53.242;6.974;2023-06-26T06:36:15;14.20;;;5.07;;
52730;SDS011;38624;53.242;6.974;2023-06-26T06:38:43;12.43;;;5.00;;
52730;SDS011;38624;53.242;6.974;2023-06-26T06:41:09;14.50;;;4.32;;
52730;SDS011;38624;53.242;6.974;2023-06-26T06:43:35;11.27;;;4.20;;
52730;SDS011;38624;53.242;6.974;2023-06-26T06:46:01;16.73;;;4.65;;
52730;SDS011;38624;53.242;6.974;2023-06-26T06:48:27;9.43;;;3.97;;
52730;SDS011;38624;53.242;6.974;2023-06-26T06:50:53;15.13;;;4.67;;
52730;SDS011;38624;53.242;6.974;2023-06-26T06:53:18;15.30;;;4.97;;
52730;SDS011;38624;53.242;6.974;2023-06-26T06:55:48;11.30;;;4.18;;
52730;SDS011;38624;53.242;6.974;2023-06-26T06:58:14;10.15;;;3.63;;
52730;SDS011;38624;53.242;6.974;2023-06-26T07:00:41;15.35;;;3.83;;
52730;SDS011;38624;53.242;6.974;2023-06-26T07:03:07;12.18;;;3.83;;
52730;SDS011;38624;53.242;6.974;2023-06-26T07:05:33;13.90;;;3.47;;
52730;SDS011;38624;53.242;6.974;2023-06-26T07:07:59;9.90;;;3.57;;
52730;SDS011;38624;53.242;6.974;2023-06-26T07:10:24;8.87;;;2.87;;
52730;SDS011;38624;53.242;6.974;2023-06-26T07:12:50;12.00;;;3.20;;
52730;SDS011;38624;53.242;6.974;2023-06-26T07:15:16;12.20;;;3.50;;
52730;SDS011;38624;53.242;6.974;2023-06-26T07:17:42;13.25;;;3.70;;
52730;SDS011;38624;53.242;6.974;2023-06-26T07:20:07;8.90;;;2.70;;
52730;SDS011;38624;53.242;6.974;2023-06-26T07:22:35;12.75;;;2.95;;
52730;SDS011;38624;53.242;6.974;2023-06-26T07:25:01;10.77;;;3.30;;
52730;SDS011;38624;53.242;6.974;2023-06-26T07:27:28;12.55;;;3.38;;
52730;SDS011;38624;53.242;6.974;2023-06-26T07:29:54;10.23;;;3.57;;
52730;SDS011;38624;53.242;6.974;2023-06-26T07:32:20;8.67;;;3.03;;
52730;SDS011;38624;53.242;6.974;2023-06-26T07:34:46;7.23;;;2.77;;
52730;SDS011;38624;53.242;6.974;2023-06-26T07:37:11;9.70;;;2.80;;
52730;SDS011;38624;53.242;6.974;2023-06-26T07:39:37;9.73;;;3.00;;
52730;SDS011;38624;53.242;6.974;2023-06-26T07:42:03;7.90;;;2.37;;
52730;SDS011;38624;53.242;6.974;2023-06-26T07:44:29;10.43;;;2.55;;
52730;SDS011;38624;53.242;6.974;2023-06-26T07:46:54;7.93;;;2.57;;
52730;SDS011;38624;53.242;6.974;2023-06-26T07:49:20;6.33;;;2.40;;
52730;SDS011;38624;53.242;6.974;2023-06-26T07:51:46;8.07;;;2.40;;
52730;SDS011;38624;53.242;6.974;2023-06-26T07:54:11;8.87;;;2.50;;
52730;SDS011;38624;53.242;6.974;2023-06-26T07:59:27;8.88;;;2.30;;
52730;SDS011;38624;53.242;6.974;2023-06-26T08:01:54;7.32;;;1.90;;
52730;SDS011;38624;53.242;6.974;2023-06-26T08:04:23;7.32;;;2.50;;
52730;SDS011;38624;53.242;6.974;2023-06-26T08:06:50;6.68;;;2.05;;
52730;SDS011;38624;53.242;6.974;2023-06-26T08:09:18;9.63;;;1.63;;
52730;SDS011;38624;53.242;6.974;2023-06-26T08:11:45;7.60;;;2.00;;
52730;SDS011;38624;53.242;6.974;2023-06-26T08:14:11;7.32;;;1.77;;
52730;SDS011;38624;53.242;6.974;2023-06-26T08:16:40;7.60;;;2.03;;
52730;SDS011;38624;53.242;6.974;2023-06-26T08:19:07;8.15;;;2.20;;
52730;SDS011;38624;53.242;6.974;2023-06-26T08:21:33;4.28;;;1.60;;
52730;SDS011;38624;53.242;6.974;2023-06-26T08:23:59;5.82;;;1.92;;
52730;SDS011;38624;53.242;6.974;2023-06-26T08:26:24;7.70;;;1.80;;
52730;SDS011;38624;53.242;6.974;2023-06-26T08:28:50;6.23;;;1.67;;
52730;SDS011;38624;53.242;6.974;2023-06-26T08:31:16;9.83;;;3.73;;
52730;SDS011;38624;53.242;6.974;2023-06-26T08:33:42;8.30;;;1.83;;
52730;SDS011;38624;53.242;6.974;2023-06-26T08:36:08;6.03;;;1.95;;
52730;SDS011;38624;53.242;6.974;2023-06-26T08:38:34;7.03;;;1.80;;
52730;SDS011;38624;53.242;6.974;2023-06-26T08:41:00;5.10;;;1.67;;
52730;SDS011;38624;53.242;6.974;2023-06-26T08:43:26;6.63;;;1.60;;
52730;SDS011;38624;53.242;6.974;2023-06-26T08:45:52;7.55;;;2.35;;
52730;SDS011;38624;53.242;6.974;2023-06-26T08:48:18;5.27;;;1.40;;
52730;SDS011;38624;53.242;6.974;2023-06-26T08:50:45;5.65;;;1.60;;
52730;SDS011;38624;53.242;6.974;2023-06-26T08:53:27;5.13;;;2.15;;
52730;SDS011;38624;53.242;6.974;2023-06-26T08:55:59;6.55;;;1.92;;
52730;SDS011;38624;53.242;6.974;2023-06-26T08:58:25;7.53;;;1.85;;
52730;SDS011;38624;53.242;6.974;2023-06-26T09:00:51;6.55;;;2.15;;
52730;SDS011;38624;53.242;6.974;2023-06-26T09:03:18;6.60;;;1.52;;
52730;SDS011;38624;53.242;6.974;2023-06-26T09:05:44;4.50;;;1.80;;
52730;SDS011;38624;53.242;6.974;2023-06-26T09:08:10;9.53;;;2.10;;
52730;SDS011;38624;53.242;6.974;2023-06-26T09:10:36;6.47;;;1.80;;
52730;SDS011;38624;53.242;6.974;2023-06-26T09:13:02;7.35;;;2.00;;
52730;SDS011;38624;53.242;6.974;2023-06-26T09:15:36;8.25;;;2.08;;
52730;SDS011;38624;53.242;6.974;2023-06-26T09:18:08;7.47;;;1.92;;
52730;SDS011;38624;53.242;6.974;2023-06-26T09:20:34;9.07;;;2.63;;
52730;SDS011;38624;53.242;6.974;2023-06-26T09:25:28;6.75;;;2.05;;
52730;SDS011;38624;53.242;6.974;2023-06-26T09:27:54;6.22;;;2.20;;
52730;SDS011;38624;53.242;6.974;2023-06-26T09:30:20;5.82;;;2.00;;
52730;SDS011;38624;53.242;6.974;2023-06-26T09:32:46;5.77;;;2.30;;
52730;SDS011;38624;53.242;6.974;2023-06-26T09:35:12;6.22;;;2.33;;
52730;SDS011;38624;53.242;6.974;2023-06-26T09:37:38;5.93;;;2.23;;
52730;SDS011;38624;53.242;6.974;2023-06-26T09:40:04;6.25;;;2.72;;
52730;SDS011;38624;53.242;6.974;2023-06-26T09:44:57;6.38;;;2.35;;
52730;SDS011;38624;53.242;6.974;2023-06-26T09:47:23;6.47;;;2.25;;
52730;SDS011;38624;53.242;6.974;2023-06-26T09:49:49;6.88;;;2.38;;
52730;SDS011;38624;53.242;6.974;2023-06-26T09:52:16;4.15;;;2.10;;
52730;SDS011;38624;53.242;6.974;2023-06-26T09:54:43;10.75;;;2.30;;
52730;SDS011;38624;53.242;6.974;2023-06-26T09:57:12;6.10;;;1.77;;
52730;SDS011;38624;53.242;6.974;2023-06-26T09:59:43;5.70;;;2.30;;
52730;SDS011;38624;53.242;6.974;2023-06-26T10:02:10;5.05;;;2.10;;
52730;SDS011;38624;53.242;6.974;2023-06-26T10:04:36;6.00;;;2.20;;
52730;SDS011;38624;53.242;6.974;2023-06-26T10:07:06;7.63;;;2.45;;
52730;SDS011;38624;53.242;6.974;2023-06-26T10:09:36;9.07;;;2.30;;
52730;SDS011;38624;53.242;6.974;2023-06-26T10:12:06;7.25;;;2.33;;
52730;SDS011;38624;53.242;6.974;2023-06-26T10:14:39;8.00;;;2.42;;
52730;SDS011;38624;53.242;6.974;2023-06-26T10:17:08;6.35;;;2.35;;
52730;SDS011;38624;53.242;6.974;2023-06-26T10:19:35;6.82;;;2.45;;
52730;SDS011;38624;53.242;6.974;2023-06-26T10:22:04;6.47;;;2.22;;
52730;SDS011;38624;53.242;6.974;2023-06-26T10:24:31;5.35;;;2.30;;
52730;SDS011;38624;53.242;6.974;2023-06-26T10:27:02;6.25;;;2.65;;
52730;SDS011;38624;53.242;6.974;2023-06-26T10:29:31;7.90;;;2.13;;
52730;SDS011;38624;53.242;6.974;2023-06-26T10:31:59;5.45;;;2.28;;
52730;SDS011;38624;53.242;6.974;2023-06-26T10:34:27;6.20;;;2.20;;
52730;SDS011;38624;53.242;6.974;2023-06-26T10:37:00;5.97;;;2.57;;
52730;SDS011;38624;53.242;6.974;2023-06-26T10:39:26;4.47;;;2.42;;
52730;SDS011;38624;53.242;6.974;2023-06-26T10:41:54;10.02;;;2.72;;
52730;SDS011;38624;53.242;6.974;2023-06-26T10:44:21;6.22;;;2.08;;
52730;SDS011;38624;53.242;6.974;2023-06-26T10:46:53;4.25;;;2.13;;
52730;SDS011;38624;53.242;6.974;2023-06-26T10:49:23;5.85;;;2.67;;
52730;SDS011;38624;53.242;6.974;2023-06-26T10:51:51;9.05;;;2.92;;
52730;SDS011;38624;53.242;6.974;2023-06-26T10:54:19;5.75;;;2.67;;
52730;SDS011;38624;53.242;6.974;2023-06-26T10:56:46;5.72;;;2.70;;
52730;SDS011;38624;53.242;6.974;2023-06-26T10:59:23;6.95;;;2.75;;
52730;SDS011;38624;53.242;6.974;2023-06-26T11:01:55;4.72;;;2.63;;
52730;SDS011;38624;53.242;6.974;2023-06-26T11:07:25;4.05;;;2.60;;
52730;SDS011;38624;53.242;6.974;2023-06-26T11:10:01;4.00;;;2.40;;
52730;SDS011;38624;53.242;6.974;2023-06-26T11:12:43;4.88;;;2.50;;
52730;SDS011;38624;53.242;6.974;2023-06-26T11:15:13;7.57;;;2.90;;
52730;SDS011;38624;53.242;6.974;2023-06-26T11:17:41;7.30;;;3.13;;
52730;SDS011;38624;53.242;6.974;2023-06-26T11:20:11;7.10;;;2.80;;
52730;SDS011;38624;53.242;6.974;2023-06-26T11:22:39;8.18;;;2.45;;
52730;SDS011;38624;53.242;6.974;2023-06-26T11:25:06;6.80;;;2.70;;
52730;SDS011;38624;53.242;6.974;2023-06-26T11:27:40;6.40;;;2.60;;
52730;SDS011;38624;53.242;6.974;2023-06-26T11:30:08;5.60;;;2.53;;
52730;SDS011;38624;53.242;6.974;2023-06-26T11:32:36;5.30;;;2.45;;
52730;SDS011;38624;53.242;6.974;2023-06-26T11:35:03;5.05;;;2.40;;
52730;SDS011;38624;53.242;6.974;2023-06-26T11:37:32;6.03;;;2.53;;
52730;SDS011;38624;53.242;6.974;2023-06-26T11:39:58;3.63;;;2.30;;
52730;SDS011;38624;53.242;6.974;2023-06-26T11:42:24;4.30;;;2.10;;
52730;SDS011;38624;53.242;6.974;2023-06-26T11:44:50;4.67;;;1.90;;
52730;SDS011;38624;53.242;6.974;2023-06-26T11:47:18;5.28;;;2.10;;
52730;SDS011;38624;53.242;6.974;2023-06-26T11:49:45;5.20;;;1.85;;
52730;SDS011;38624;53.242;6.974;2023-06-26T11:52:13;5.43;;;2.05;;
52730;SDS011;38624;53.242;6.974;2023-06-26T11:57:05;4.40;;;1.73;;
52730;SDS011;38624;53.242;6.974;2023-06-26T11:59:33;9.70;;;1.77;;
52730;SDS011;38624;53.242;6.974;2023-06-26T12:02:06;3.75;;;1.58;;
52730;SDS011;38624;53.242;6.974;2023-06-26T12:04:36;3.97;;;1.60;;
52730;SDS011;38624;53.242;6.974;2023-06-26T12:07:04;3.72;;;1.42;;
52730;SDS011;38624;53.242;6.974;2023-06-26T12:09:33;5.25;;;1.70;;
52730;SDS011;38624;53.242;6.974;2023-06-26T12:12:03;4.47;;;1.33;;
52730;SDS011;38624;53.242;6.974;2023-06-26T12:14:29;4.70;;;1.50;;
52730;SDS011;38624;53.242;6.974;2023-06-26T12:16:56;5.10;;;1.40;;
52730;SDS011;38624;53.242;6.974;2023-06-26T12:19:29;5.78;;;1.48;;
52730;SDS011;38624;53.242;6.974;2023-06-26T12:21:55;6.63;;;1.83;;
52730;SDS011;38624;53.242;6.974;2023-06-26T12:24:22;5.97;;;1.70;;
52730;SDS011;38624;53.242;6.974;2023-06-26T12:26:52;7.60;;;1.52;;
52730;SDS011;38624;53.242;6.974;2023-06-26T12:29:33;7.13;;;1.80;;
52730;SDS011;38624;53.242;6.974;2023-06-26T12:31:59;7.10;;;1.80;;
52730;SDS011;38624;53.242;6.974;2023-06-26T12:37:02;3.70;;;1.60;;
52730;SDS011;38624;53.242;6.974;2023-06-26T12:39:30;7.07;;;1.75;;
52730;SDS011;38624;53.242;6.974;2023-06-26T12:42:22;6.60;;;1.98;;
52730;SDS011;38624;53.242;6.974;2023-06-26T12:44:50;5.45;;;1.52;;
52730;SDS011;38624;53.242;6.974;2023-06-26T12:47:17;5.43;;;1.70;;
52730;SDS011;38624;53.242;6.974;2023-06-26T12:49:45;8.10;;;1.50;;
52730;SDS011;38624;53.242;6.974;2023-06-26T12:52:15;6.75;;;1.80;;
52730;SDS011;38624;53.242;6.974;2023-06-26T12:54:44;10.85;;;1.63;;
52730;SDS011;38624;53.242;6.974;2023-06-26T12:57:12;10.10;;;1.83;;
52730;SDS011;38624;53.242;6.974;2023-06-26T12:59:39;4.97;;;1.50;;
52730;SDS011;38624;53.242;6.974;2023-06-26T13:02:05;6.90;;;1.50;;
52730;SDS011;38624;53.242;6.974;2023-06-26T13:04:32;7.05;;;1.70;;
52730;SDS011;38624;53.242;6.974;2023-06-26T13:06:58;6.90;;;1.70;;
52730;SDS011;38624;53.242;6.974;2023-06-26T13:09:24;7.57;;;1.80;;
52730;SDS011;38624;53.242;6.974;2023-06-26T13:11:51;6.15;;;1.60;;
52730;SDS011;38624;53.242;6.974;2023-06-26T13:14:17;3.25;;;1.20;;
52730;SDS011;38624;53.242;6.974;2023-06-26T13:16:43;4.90;;;1.53;;
52730;SDS011;38624;53.242;6.974;2023-06-26T13:19:09;4.47;;;1.37;;
52730;SDS011;38624;53.242;6.974;2023-06-26T13:21:34;2.47;;;0.97;;
52730;SDS011;38624;53.242;6.974;2023-06-26T13:24:01;5.13;;;1.48;;
52730;SDS011;38624;53.242;6.974;2023-06-26T13:26:29;4.05;;;1.40;;
52730;SDS011;38624;53.242;6.974;2023-06-26T13:28:55;4.45;;;1.30;;
52730;SDS011;38624;53.242;6.974;2023-06-26T13:31:21;8.68;;;1.52;;
52730;SDS011;38624;53.242;6.974;2023-06-26T13:33:47;2.97;;;1.40;;
52730;SDS011;38624;53.242;6.974;2023-06-26T13:36:17;5.18;;;1.70;;
52730;SDS011;38624;53.242;6.974;2023-06-26T13:38:43;7.05;;;1.67;;
52730;SDS011;38624;53.242;6.974;2023-06-26T13:41:09;3.80;;;1.50;;
52730;SDS011;38624;53.242;6.974;2023-06-26T13:43:35;2.95;;;1.30;;
52730;SDS011;38624;53.242;6.974;2023-06-26T13:46:01;4.63;;;1.70;;
52730;SDS011;38624;53.242;6.974;2023-06-26T13:48:27;7.10;;;1.73;;
52730;SDS011;38624;53.242;6.974;2023-06-26T13:50:53;8.33;;;2.30;;
52730;SDS011;38624;53.242;6.974;2023-06-26T13:53:19;5.10;;;1.63;;
52730;SDS011;38624;53.242;6.974;2023-06-26T13:55:45;6.78;;;1.90;;
52730;SDS011;38624;53.242;6.974;2023-06-26T13:58:11;7.83;;;1.87;;
52730;SDS011;38624;53.242;6.974;2023-06-26T14:00:38;4.00;;;1.45;;
52730;SDS011;38624;53.242;6.974;2023-06-26T14:03:05;8.68;;;2.13;;
52730;SDS011;38624;53.242;6.974;2023-06-26T14:05:34;9.98;;;2.47;;
52730;SDS011;38624;53.242;6.974;2023-06-26T14:10:28;6.40;;;1.80;;
52730;SDS011;38624;53.242;6.974;2023-06-26T14:12:53;5.37;;;1.80;;
52730;SDS011;38624;53.242;6.974;2023-06-26T14:15:19;7.10;;;2.00;;
52730;SDS011;38624;53.242;6.974;2023-06-26T14:17:45;5.30;;;2.20;;
52730;SDS011;38624;53.242;6.974;2023-06-26T14:20:12;7.65;;;1.90;;
52730;SDS011;38624;53.242;6.974;2023-06-26T14:22:39;7.95;;;2.00;;
52730;SDS011;38624;53.242;6.974;2023-06-26T14:25:08;8.45;;;2.28;;
52730;SDS011;38624;53.242;6.974;2023-06-26T14:27:35;7.68;;;1.98;;
52730;SDS011;38624;53.242;6.974;2023-06-26T14:30:02;6.50;;;1.90;;
52730;SDS011;38624;53.242;6.974;2023-06-26T14:32:29;9.45;;;1.95;;
52730;SDS011;38624;53.242;6.974;2023-06-26T14:34:55;4.95;;;1.95;;
52730;SDS011;38624;53.242;6.974;2023-06-26T14:37:21;6.40;;;1.83;;
52730;SDS011;38624;53.242;6.974;2023-06-26T14:39:47;12.40;;;2.30;;
52730;SDS011;38624;53.242;6.974;2023-06-26T14:42:13;7.27;;;2.30;;
52730;SDS011;38624;53.242;6.974;2023-06-26T14:44:38;6.83;;;2.10;;
52730;SDS011;38624;53.242;6.974;2023-06-26T14:47:04;10.23;;;2.23;;
52730;SDS011;38624;53.242;6.974;2023-06-26T14:49:30;6.70;;;1.92;;
52730;SDS011;38624;53.242;6.974;2023-06-26T14:51:56;6.17;;;2.07;;
52730;SDS011;38624;53.242;6.974;2023-06-26T14:54:22;6.13;;;1.80;;
52730;SDS011;38624;53.242;6.974;2023-06-26T14:56:48;7.53;;;2.07;;
52730;SDS011;38624;53.242;6.974;2023-06-26T14:59:14;8.30;;;1.80;;
52730;SDS011;38624;53.242;6.974;2023-06-26T15:01:39;6.63;;;2.10;;
52730;SDS011;38624;53.242;6.974;2023-06-26T15:04:05;6.83;;;1.90;;
52730;SDS011;38624;53.242;6.974;2023-06-26T15:06:32;7.70;;;2.10;;